KAP335 TJSJ-TNCM
Flight info
| Callsign | KAP335 |
|---|---|
| Flight time | 1h 6m |
| Altitude | 10000 |
| Route | JETSS1 JETSS Y290 SLUGO ULUBA1 |
| Aircraft | P212/L-SBDFGIRY/SB1 |
Departure
| Time | 2026-05-06 00:31 |
|---|---|
| Airport | Luis Munoz Marin International Airport (TJSJ) |
Arrival
| Time | 2026-05-06 01:37 |
|---|---|
| Airport | Princess Juliana International Airport (TNCM) |
| Time | Latitude | Longitude | Altitude | Speed | Heading |
|---|---|---|---|---|---|
| 2026-05-06 00:15 | 18.44128 | -66.00284 | 11 ft | 0 kts | 160° |
| 2026-05-06 00:23 | 18.44112 | -66.00277 | 11 ft | 2 kts | 117° |
| 2026-05-06 00:23 | 18.44112 | -66.00265 | 11 ft | 4 kts | 73° |
| 2026-05-06 00:23 | 18.44121 | -66.00236 | 11 ft | 4 kts | 69° |
| 2026-05-06 00:24 | 18.44165 | -66.00208 | 11 ft | 12 kts | 353° |
| 2026-05-06 00:24 | 18.44177 | -66.00278 | 11 ft | 18 kts | 244° |
| 2026-05-06 00:24 | 18.44121 | -66.00419 | 11 ft | 22 kts | 270° |
| 2026-05-06 00:24 | 18.44129 | -66.00532 | 11 ft | 7 kts | 221° |
| 2026-05-06 00:25 | 18.44093 | -66.00570 | 11 ft | 8 kts | 226° |
| 2026-05-06 00:25 | 18.44072 | -66.00613 | 11 ft | 7 kts | 257° |
| 2026-05-06 00:25 | 18.44038 | -66.00717 | 11 ft | 23 kts | 249° |
| 2026-05-06 00:25 | 18.43955 | -66.00915 | 11 ft | 34 kts | 246° |
| 2026-05-06 00:26 | 18.43861 | -66.01142 | 11 ft | 32 kts | 252° |
| 2026-05-06 00:26 | 18.43797 | -66.01325 | 11 ft | 24 kts | 241° |
| 2026-05-06 00:26 | 18.43711 | -66.01360 | 11 ft | 21 kts | 177° |
| 2026-05-06 00:26 | 18.43516 | -66.01357 | 11 ft | 18 kts | 185° |
| 2026-05-06 00:27 | 18.43479 | -66.01361 | 11 ft | 7 kts | 182° |
| 2026-05-06 00:27 | 18.43462 | -66.01361 | 11 ft | 2 kts | 180° |
| 2026-05-06 00:27 | 18.43453 | -66.01361 | 11 ft | 0 kts | 180° |
| 2026-05-06 00:28 | 18.43417 | -66.01361 | 11 ft | 10 kts | 180° |
| 2026-05-06 00:28 | 18.43395 | -66.01361 | 11 ft | 0 kts | 176° |
| 2026-05-06 00:29 | 18.43370 | -66.01348 | 11 ft | 10 kts | 129° |
| 2026-05-06 00:29 | 18.43364 | -66.01326 | 11 ft | 0 kts | 93° |
| 2026-05-06 00:30 | 18.43359 | -66.01247 | 11 ft | 35 kts | 95° |
| 2026-05-06 00:30 | 18.43353 | -66.00787 | 11 ft | 88 kts | 90° |
| 2026-05-06 00:30 | 18.43352 | -66.00018 | 53 ft | 114 kts | 93° |
| 2026-05-06 00:31 | 18.43357 | -65.99101 | 119 ft | 135 kts | 92° |
| 2026-05-06 00:31 | 18.43385 | -65.98092 | 344 ft | 139 kts | 90° |
| 2026-05-06 00:31 | 18.43479 | -65.97065 | 599 ft | 142 kts | 87° |
| 2026-05-06 00:31 | 18.43588 | -65.95977 | 790 ft | 151 kts | 86° |
| 2026-05-06 00:32 | 18.43697 | -65.94926 | 1096 ft | 142 kts | 86° |
| 2026-05-06 00:32 | 18.43793 | -65.93943 | 1354 ft | 128 kts | 88° |
| 2026-05-06 00:32 | 18.43954 | -65.93061 | 1618 ft | 122 kts | 66° |
| 2026-05-06 00:32 | 18.44574 | -65.92404 | 1763 ft | 131 kts | 46° |
| 2026-05-06 00:33 | 18.45278 | -65.91766 | 1886 ft | 136 kts | 46° |
| 2026-05-06 00:33 | 18.45996 | -65.91112 | 2017 ft | 140 kts | 47° |
| 2026-05-06 00:33 | 18.46745 | -65.90443 | 2144 ft | 141 kts | 43° |
| 2026-05-06 00:33 | 18.47199 | -65.89594 | 2261 ft | 132 kts | 91° |
| 2026-05-06 00:34 | 18.47141 | -65.88638 | 2394 ft | 131 kts | 95° |
| 2026-05-06 00:34 | 18.47110 | -65.87680 | 2523 ft | 131 kts | 94° |
| 2026-05-06 00:34 | 18.47082 | -65.86731 | 2640 ft | 130 kts | 94° |
| 2026-05-06 00:34 | 18.47053 | -65.85780 | 2760 ft | 130 kts | 95° |
| 2026-05-06 00:35 | 18.47022 | -65.84822 | 2884 ft | 131 kts | 94° |
| 2026-05-06 00:35 | 18.46992 | -65.83864 | 3007 ft | 130 kts | 94° |
| 2026-05-06 00:35 | 18.46962 | -65.82911 | 3125 ft | 130 kts | 94° |
| 2026-05-06 00:35 | 18.46933 | -65.81959 | 3247 ft | 130 kts | 94° |
| 2026-05-06 00:36 | 18.46903 | -65.81010 | 3372 ft | 131 kts | 94° |
| 2026-05-06 00:36 | 18.46873 | -65.80049 | 3496 ft | 132 kts | 94° |
| 2026-05-06 00:36 | 18.46844 | -65.79088 | 3637 ft | 131 kts | 94° |
| 2026-05-06 00:36 | 18.46814 | -65.78133 | 3754 ft | 132 kts | 94° |
| 2026-05-06 00:37 | 18.46783 | -65.77163 | 3876 ft | 132 kts | 94° |
| 2026-05-06 00:37 | 18.46752 | -65.76196 | 3998 ft | 131 kts | 94° |
| 2026-05-06 00:37 | 18.46721 | -65.75245 | 4122 ft | 132 kts | 94° |
| 2026-05-06 00:37 | 18.46690 | -65.74269 | 4244 ft | 133 kts | 94° |
| 2026-05-06 00:38 | 18.46398 | -65.73376 | 4365 ft | 133 kts | 133° |
| 2026-05-06 00:38 | 18.45847 | -65.72617 | 4487 ft | 132 kts | 104° |
| 2026-05-06 00:38 | 18.45714 | -65.71661 | 4617 ft | 131 kts | 102° |
| 2026-05-06 00:38 | 18.45519 | -65.70694 | 4753 ft | 142 kts | 102° |
| 2026-05-06 00:39 | 18.45323 | -65.69638 | 4892 ft | 150 kts | 102° |
| 2026-05-06 00:39 | 18.45128 | -65.68543 | 5023 ft | 154 kts | 101° |
| 2026-05-06 00:39 | 18.44930 | -65.67423 | 5157 ft | 156 kts | 102° |
| 2026-05-06 00:39 | 18.44733 | -65.66303 | 5282 ft | 158 kts | 102° |
| 2026-05-06 00:40 | 18.44531 | -65.65156 | 5408 ft | 160 kts | 101° |
| 2026-05-06 00:40 | 18.44327 | -65.63999 | 5527 ft | 161 kts | 101° |
| 2026-05-06 00:40 | 18.44126 | -65.62843 | 5650 ft | 159 kts | 101° |
| 2026-05-06 00:40 | 18.43923 | -65.61698 | 5770 ft | 158 kts | 102° |
| 2026-05-06 00:41 | 18.43724 | -65.60574 | 5889 ft | 158 kts | 101° |
| 2026-05-06 00:41 | 18.43524 | -65.59438 | 6034 ft | 156 kts | 102° |
| 2026-05-06 00:41 | 18.43328 | -65.58316 | 6200 ft | 155 kts | 102° |
| 2026-05-06 00:41 | 18.43130 | -65.57195 | 6372 ft | 155 kts | 102° |
| 2026-05-06 00:42 | 18.42936 | -65.56098 | 6534 ft | 154 kts | 103° |
| 2026-05-06 00:42 | 18.42739 | -65.54989 | 6692 ft | 154 kts | 102° |
| 2026-05-06 00:42 | 18.42544 | -65.53880 | 6852 ft | 154 kts | 102° |
| 2026-05-06 00:42 | 18.42348 | -65.52763 | 7019 ft | 155 kts | 102° |
| 2026-05-06 00:43 | 18.42149 | -65.51641 | 7176 ft | 155 kts | 102° |
| 2026-05-06 00:43 | 18.41951 | -65.50519 | 7343 ft | 156 kts | 102° |
| 2026-05-06 00:43 | 18.41751 | -65.49392 | 7511 ft | 156 kts | 102° |
| 2026-05-06 00:43 | 18.41555 | -65.48282 | 7672 ft | 156 kts | 102° |
| 2026-05-06 00:44 | 18.41355 | -65.47151 | 7836 ft | 156 kts | 102° |
| 2026-05-06 00:44 | 18.41156 | -65.46024 | 8006 ft | 156 kts | 102° |
| 2026-05-06 00:44 | 18.40955 | -65.44897 | 8167 ft | 156 kts | 102° |
| 2026-05-06 00:44 | 18.40758 | -65.43782 | 8335 ft | 157 kts | 102° |
| 2026-05-06 00:45 | 18.40691 | -65.43402 | 8392 ft | 155 kts | 101° |
| 2026-05-06 00:45 | 18.40538 | -65.42539 | 8520 ft | 151 kts | 102° |
| 2026-05-06 00:45 | 18.40348 | -65.41469 | 8682 ft | 146 kts | 101° |
| 2026-05-06 00:45 | 18.40163 | -65.40421 | 8842 ft | 144 kts | 101° |
| 2026-05-06 00:46 | 18.39984 | -65.39402 | 9004 ft | 138 kts | 102° |
| 2026-05-06 00:46 | 18.39810 | -65.38422 | 9161 ft | 133 kts | 102° |
| 2026-05-06 00:46 | 18.39643 | -65.37485 | 9319 ft | 130 kts | 101° |
| 2026-05-06 00:46 | 18.39477 | -65.36552 | 9482 ft | 128 kts | 101° |
| 2026-05-06 00:47 | 18.39315 | -65.35640 | 9647 ft | 126 kts | 101° |
| 2026-05-06 00:47 | 18.39157 | -65.34751 | 9811 ft | 124 kts | 101° |
| 2026-05-06 00:47 | 18.38998 | -65.33861 | 9969 ft | 123 kts | 101° |
| 2026-05-06 00:47 | 18.38834 | -65.32938 | 9988 ft | 133 kts | 101° |
| 2026-05-06 00:48 | 18.38659 | -65.31951 | 10002 ft | 141 kts | 101° |
| 2026-05-06 00:48 | 18.38477 | -65.30930 | 10006 ft | 146 kts | 101° |
| 2026-05-06 00:48 | 18.38286 | -65.29863 | 10009 ft | 150 kts | 101° |
| 2026-05-06 00:48 | 18.38093 | -65.28773 | 10011 ft | 152 kts | 101° |
| 2026-05-06 00:49 | 18.37897 | -65.27669 | 10004 ft | 154 kts | 101° |
| 2026-05-06 00:49 | 18.37699 | -65.26558 | 10006 ft | 155 kts | 101° |
| 2026-05-06 00:49 | 18.37499 | -65.25441 | 9996 ft | 156 kts | 101° |
| 2026-05-06 00:49 | 18.37302 | -65.24334 | 10005 ft | 156 kts | 101° |
| 2026-05-06 00:50 | 18.37102 | -65.23206 | 10006 ft | 156 kts | 101° |
| 2026-05-06 00:50 | 18.36901 | -65.22082 | 10007 ft | 156 kts | 101° |
| 2026-05-06 00:50 | 18.36700 | -65.20954 | 10005 ft | 156 kts | 101° |
| 2026-05-06 00:50 | 18.36499 | -65.19827 | 10004 ft | 156 kts | 101° |
| 2026-05-06 00:51 | 18.36297 | -65.18700 | 10007 ft | 156 kts | 101° |
| 2026-05-06 00:51 | 18.36099 | -65.17589 | 10000 ft | 156 kts | 101° |
| 2026-05-06 00:51 | 18.35896 | -65.16458 | 10005 ft | 156 kts | 101° |
| 2026-05-06 00:51 | 18.35695 | -65.15331 | 10002 ft | 156 kts | 101° |
| 2026-05-06 00:52 | 18.35496 | -65.14219 | 10003 ft | 156 kts | 101° |
| 2026-05-06 00:52 | 18.35295 | -65.13091 | 10004 ft | 156 kts | 101° |
| 2026-05-06 00:52 | 18.35094 | -65.11966 | 10002 ft | 156 kts | 101° |
| 2026-05-06 00:52 | 18.34893 | -65.10841 | 9999 ft | 156 kts | 101° |
| 2026-05-06 00:53 | 18.34691 | -65.09715 | 10007 ft | 156 kts | 101° |
| 2026-05-06 00:53 | 18.34492 | -65.08600 | 10010 ft | 157 kts | 101° |
| 2026-05-06 00:53 | 18.34289 | -65.07469 | 10010 ft | 157 kts | 101° |
| 2026-05-06 00:53 | 18.34087 | -65.06340 | 10006 ft | 157 kts | 101° |
| 2026-05-06 00:54 | 18.33887 | -65.05224 | 10010 ft | 157 kts | 101° |
| 2026-05-06 00:54 | 18.33686 | -65.04097 | 10012 ft | 157 kts | 101° |
| 2026-05-06 00:54 | 18.33483 | -65.02968 | 10010 ft | 156 kts | 101° |
| 2026-05-06 00:54 | 18.33280 | -65.01842 | 10006 ft | 156 kts | 101° |
| 2026-05-06 00:55 | 18.33078 | -65.00715 | 10008 ft | 156 kts | 101° |
| 2026-05-06 00:55 | 18.32875 | -64.99586 | 10003 ft | 156 kts | 101° |
| 2026-05-06 00:55 | 18.32677 | -64.98476 | 10001 ft | 156 kts | 101° |
| 2026-05-06 00:55 | 18.32474 | -64.97352 | 10000 ft | 156 kts | 101° |
| 2026-05-06 00:56 | 18.32272 | -64.96228 | 10001 ft | 156 kts | 101° |
| 2026-05-06 00:56 | 18.32070 | -64.95101 | 10002 ft | 156 kts | 101° |
| 2026-05-06 00:56 | 18.31870 | -64.93989 | 10004 ft | 157 kts | 101° |
| 2026-05-06 00:56 | 18.31667 | -64.92862 | 10005 ft | 156 kts | 101° |
| 2026-05-06 00:57 | 18.31464 | -64.91736 | 10007 ft | 156 kts | 101° |
| 2026-05-06 00:57 | 18.31261 | -64.90608 | 10002 ft | 156 kts | 101° |
| 2026-05-06 00:57 | 18.31057 | -64.89478 | 10011 ft | 156 kts | 101° |
| 2026-05-06 00:57 | 18.30858 | -64.88368 | 10005 ft | 156 kts | 101° |
| 2026-05-06 00:58 | 18.30655 | -64.87241 | 10010 ft | 156 kts | 101° |
| 2026-05-06 00:58 | 18.30452 | -64.86114 | 10006 ft | 156 kts | 101° |
| 2026-05-06 00:58 | 18.30249 | -64.84990 | 10009 ft | 156 kts | 101° |
| 2026-05-06 00:58 | 18.30048 | -64.83878 | 10006 ft | 157 kts | 101° |
| 2026-05-06 00:59 | 18.29846 | -64.82752 | 10007 ft | 156 kts | 101° |
| 2026-05-06 00:59 | 18.29642 | -64.81623 | 10005 ft | 156 kts | 101° |
| 2026-05-06 00:59 | 18.29439 | -64.80498 | 10001 ft | 156 kts | 101° |
| 2026-05-06 00:59 | 18.29236 | -64.79371 | 10000 ft | 156 kts | 101° |
| 2026-05-06 01:00 | 18.29033 | -64.78245 | 9993 ft | 156 kts | 101° |
| 2026-05-06 01:00 | 18.28832 | -64.77135 | 9994 ft | 156 kts | 101° |
| 2026-05-06 01:00 | 18.28629 | -64.76009 | 9992 ft | 156 kts | 101° |
| 2026-05-06 01:00 | 18.28426 | -64.74889 | 9994 ft | 156 kts | 101° |
| 2026-05-06 01:01 | 18.28223 | -64.73769 | 9994 ft | 156 kts | 101° |
| 2026-05-06 01:01 | 18.28020 | -64.72647 | 9992 ft | 156 kts | 101° |
| 2026-05-06 01:01 | 18.27815 | -64.71516 | 10008 ft | 166 kts | 101° |
| 2026-05-06 01:01 | 18.27590 | -64.70273 | 10015 ft | 178 kts | 101° |
| 2026-05-06 01:02 | 18.27353 | -64.68962 | 10012 ft | 185 kts | 101° |
| 2026-05-06 01:02 | 18.27109 | -64.67614 | 10016 ft | 189 kts | 101° |
| 2026-05-06 01:02 | 18.26861 | -64.66248 | 10011 ft | 191 kts | 101° |
| 2026-05-06 01:02 | 18.26610 | -64.64866 | 10013 ft | 193 kts | 101° |
| 2026-05-06 01:03 | 18.26361 | -64.63493 | 10011 ft | 193 kts | 101° |
| 2026-05-06 01:03 | 18.26108 | -64.62097 | 10008 ft | 194 kts | 101° |
| 2026-05-06 01:03 | 18.25855 | -64.60704 | 10010 ft | 194 kts | 101° |
| 2026-05-06 01:03 | 18.25604 | -64.59325 | 10015 ft | 193 kts | 101° |
| 2026-05-06 01:04 | 18.25349 | -64.57923 | 10011 ft | 194 kts | 101° |
| 2026-05-06 01:04 | 18.25098 | -64.56543 | 10004 ft | 194 kts | 101° |
| 2026-05-06 01:04 | 18.24843 | -64.55143 | 10004 ft | 194 kts | 101° |
| 2026-05-06 01:04 | 18.24588 | -64.53749 | 10004 ft | 193 kts | 101° |
| 2026-05-06 01:05 | 18.24338 | -64.52373 | 10006 ft | 193 kts | 101° |
| 2026-05-06 01:05 | 18.24085 | -64.50983 | 10011 ft | 194 kts | 101° |
| 2026-05-06 01:05 | 18.23831 | -64.49588 | 10005 ft | 194 kts | 101° |
| 2026-05-06 01:05 | 18.23576 | -64.48194 | 10011 ft | 194 kts | 101° |
| 2026-05-06 01:06 | 18.23325 | -64.46814 | 10006 ft | 194 kts | 101° |
| 2026-05-06 01:06 | 18.23071 | -64.45420 | 10008 ft | 194 kts | 101° |
| 2026-05-06 01:06 | 18.22817 | -64.44028 | 10012 ft | 194 kts | 101° |
| 2026-05-06 01:06 | 18.22561 | -64.42633 | 10008 ft | 194 kts | 101° |
| 2026-05-06 01:07 | 18.22306 | -64.41239 | 10006 ft | 194 kts | 101° |
| 2026-05-06 01:07 | 18.22051 | -64.39843 | 10004 ft | 194 kts | 101° |
| 2026-05-06 01:07 | 18.21799 | -64.38461 | 10004 ft | 194 kts | 101° |
| 2026-05-06 01:07 | 18.21542 | -64.37061 | 9998 ft | 194 kts | 101° |
| 2026-05-06 01:08 | 18.21287 | -64.35664 | 9997 ft | 194 kts | 101° |
| 2026-05-06 01:08 | 18.21031 | -64.34265 | 10000 ft | 193 kts | 101° |
| 2026-05-06 01:08 | 18.20781 | -64.32902 | 9989 ft | 191 kts | 101° |
| 2026-05-06 01:08 | 18.20531 | -64.31539 | 9989 ft | 189 kts | 101° |
| 2026-05-06 01:09 | 18.20282 | -64.30183 | 9991 ft | 188 kts | 101° |
| 2026-05-06 01:09 | 18.20034 | -64.28836 | 9983 ft | 187 kts | 101° |
| 2026-05-06 01:09 | 18.19788 | -64.27493 | 9986 ft | 187 kts | 101° |
| 2026-05-06 01:09 | 18.19541 | -64.26148 | 9987 ft | 187 kts | 101° |
| 2026-05-06 01:10 | 18.19294 | -64.24801 | 9990 ft | 187 kts | 101° |
| 2026-05-06 01:10 | 18.19049 | -64.23471 | 9987 ft | 187 kts | 101° |
| 2026-05-06 01:10 | 18.18802 | -64.22125 | 9986 ft | 187 kts | 101° |
| 2026-05-06 01:10 | 18.18553 | -64.20773 | 9990 ft | 188 kts | 101° |
| 2026-05-06 01:11 | 18.18305 | -64.19424 | 9987 ft | 188 kts | 101° |
| 2026-05-06 01:11 | 18.18057 | -64.18077 | 9990 ft | 187 kts | 101° |
| 2026-05-06 01:11 | 18.17808 | -64.16730 | 9994 ft | 187 kts | 101° |
| 2026-05-06 01:11 | 18.17564 | -64.15402 | 9994 ft | 187 kts | 101° |
| 2026-05-06 01:12 | 18.17315 | -64.14053 | 9991 ft | 187 kts | 101° |
| 2026-05-06 01:12 | 18.17067 | -64.12708 | 9991 ft | 187 kts | 101° |
| 2026-05-06 01:12 | 18.16818 | -64.11361 | 9995 ft | 187 kts | 100° |
| 2026-05-06 01:12 | 18.16570 | -64.10012 | 9995 ft | 187 kts | 101° |
| 2026-05-06 01:13 | 18.16321 | -64.08665 | 9989 ft | 187 kts | 101° |
| 2026-05-06 01:13 | 18.16073 | -64.07319 | 9990 ft | 187 kts | 101° |
| 2026-05-06 01:13 | 18.15829 | -64.05988 | 9990 ft | 187 kts | 101° |
| 2026-05-06 01:13 | 18.15578 | -64.04638 | 9998 ft | 188 kts | 101° |
| 2026-05-06 01:14 | 18.15162 | -64.02393 | 9999 ft | 188 kts | 101° |
| 2026-05-06 01:14 | 18.14832 | -64.00608 | 9999 ft | 187 kts | 101° |
| 2026-05-06 01:14 | 18.14583 | -63.99262 | 10001 ft | 187 kts | 101° |
| 2026-05-06 01:15 | 18.14334 | -63.97916 | 9996 ft | 188 kts | 101° |
| 2026-05-06 01:15 | 18.14168 | -63.97022 | 10002 ft | 187 kts | 100° |
| 2026-05-06 01:15 | 18.13918 | -63.95672 | 10004 ft | 188 kts | 101° |
| 2026-05-06 01:15 | 18.13669 | -63.94326 | 9999 ft | 187 kts | 101° |
| 2026-05-06 01:16 | 18.13418 | -63.92977 | 10001 ft | 187 kts | 101° |
| 2026-05-06 01:16 | 18.13168 | -63.91629 | 10002 ft | 188 kts | 100° |
| 2026-05-06 01:16 | 18.12922 | -63.90297 | 9994 ft | 187 kts | 101° |
| 2026-05-06 01:16 | 18.12672 | -63.88950 | 10002 ft | 187 kts | 101° |
| 2026-05-06 01:17 | 18.12422 | -63.87607 | 10004 ft | 187 kts | 101° |
| 2026-05-06 01:17 | 18.12172 | -63.86260 | 9996 ft | 187 kts | 101° |
| 2026-05-06 01:17 | 18.11923 | -63.84914 | 9999 ft | 187 kts | 101° |
| 2026-05-06 01:17 | 18.11672 | -63.83567 | 9998 ft | 187 kts | 101° |
| 2026-05-06 01:18 | 18.11422 | -63.82221 | 9997 ft | 188 kts | 101° |
| 2026-05-06 01:18 | 18.11172 | -63.80876 | 9998 ft | 188 kts | 100° |
| 2026-05-06 01:18 | 18.10920 | -63.79524 | 10002 ft | 188 kts | 101° |
| 2026-05-06 01:18 | 18.10671 | -63.78189 | 9993 ft | 188 kts | 101° |
| 2026-05-06 01:19 | 18.10415 | -63.76812 | 9765 ft | 190 kts | 101° |
| 2026-05-06 01:19 | 18.10165 | -63.75470 | 9482 ft | 184 kts | 101° |
| 2026-05-06 01:19 | 18.09925 | -63.74180 | 9246 ft | 178 kts | 101° |
| 2026-05-06 01:19 | 18.09693 | -63.72940 | 9090 ft | 170 kts | 101° |
| 2026-05-06 01:20 | 18.09469 | -63.71745 | 8839 ft | 165 kts | 101° |
| 2026-05-06 01:20 | 18.09250 | -63.70576 | 8583 ft | 161 kts | 101° |
| 2026-05-06 01:20 | 18.09036 | -63.69433 | 8338 ft | 158 kts | 101° |
| 2026-05-06 01:20 | 18.08827 | -63.68310 | 8086 ft | 155 kts | 101° |
| 2026-05-06 01:21 | 18.08619 | -63.67204 | 7849 ft | 153 kts | 101° |
| 2026-05-06 01:21 | 18.08416 | -63.66115 | 7521 ft | 148 kts | 101° |
| 2026-05-06 01:21 | 18.08226 | -63.65100 | 7146 ft | 139 kts | 101° |
| 2026-05-06 01:21 | 18.08044 | -63.64124 | 6765 ft | 133 kts | 101° |
| 2026-05-06 01:22 | 18.07867 | -63.63181 | 6379 ft | 129 kts | 101° |
| 2026-05-06 01:22 | 18.07695 | -63.62261 | 5984 ft | 127 kts | 102° |
| 2026-05-06 01:22 | 18.07525 | -63.61350 | 5591 ft | 127 kts | 102° |
| 2026-05-06 01:22 | 18.07357 | -63.60455 | 5207 ft | 125 kts | 102° |
| 2026-05-06 01:23 | 18.07190 | -63.59563 | 4823 ft | 124 kts | 102° |
| 2026-05-06 01:23 | 18.07025 | -63.58683 | 4428 ft | 122 kts | 102° |
| 2026-05-06 01:23 | 18.06861 | -63.57801 | 4037 ft | 122 kts | 103° |
| 2026-05-06 01:23 | 18.06697 | -63.56928 | 3653 ft | 121 kts | 103° |
| 2026-05-06 01:24 | 18.06535 | -63.56072 | 3274 ft | 121 kts | 103° |
| 2026-05-06 01:24 | 18.06367 | -63.55180 | 3016 ft | 126 kts | 103° |
| 2026-05-06 01:24 | 18.06194 | -63.54259 | 3017 ft | 128 kts | 103° |
| 2026-05-06 01:24 | 18.06023 | -63.53342 | 3015 ft | 127 kts | 102° |
| 2026-05-06 01:25 | 18.05853 | -63.52433 | 3018 ft | 128 kts | 103° |
| 2026-05-06 01:25 | 18.05673 | -63.51489 | 3017 ft | 140 kts | 103° |
| 2026-05-06 01:25 | 18.05473 | -63.50432 | 3022 ft | 154 kts | 102° |
| 2026-05-06 01:25 | 18.05264 | -63.49301 | 3018 ft | 160 kts | 102° |
| 2026-05-06 01:26 | 18.05048 | -63.48141 | 3021 ft | 163 kts | 102° |
| 2026-05-06 01:26 | 18.04829 | -63.46969 | 3018 ft | 165 kts | 102° |
| 2026-05-06 01:26 | 18.04606 | -63.45778 | 3021 ft | 167 kts | 102° |
| 2026-05-06 01:26 | 18.04380 | -63.44580 | 3020 ft | 167 kts | 102° |
| 2026-05-06 01:27 | 18.04162 | -63.43409 | 3018 ft | 148 kts | 102° |
| 2026-05-06 01:27 | 18.03985 | -63.42477 | 2995 ft | 114 kts | 102° |
| 2026-05-06 01:27 | 18.03850 | -63.41767 | 2979 ft | 89 kts | 102° |
| 2026-05-06 01:27 | 18.03735 | -63.41155 | 2855 ft | 84 kts | 103° |
| 2026-05-06 01:28 | 18.03626 | -63.40577 | 2782 ft | 79 kts | 103° |
| 2026-05-06 01:28 | 18.03520 | -63.40028 | 2872 ft | 79 kts | 103° |
| 2026-05-06 01:28 | 18.03396 | -63.39382 | 3043 ft | 101 kts | 103° |
| 2026-05-06 01:28 | 18.03246 | -63.38595 | 3092 ft | 118 kts | 102° |
| 2026-05-06 01:29 | 18.03075 | -63.37692 | 3041 ft | 131 kts | 102° |
| 2026-05-06 01:29 | 18.02896 | -63.36742 | 3031 ft | 136 kts | 101° |
| 2026-05-06 01:29 | 18.02708 | -63.35741 | 3028 ft | 141 kts | 102° |
| 2026-05-06 01:29 | 18.02518 | -63.34731 | 3025 ft | 142 kts | 102° |
| 2026-05-06 01:30 | 18.02326 | -63.33713 | 3029 ft | 142 kts | 102° |
| 2026-05-06 01:30 | 18.02132 | -63.32688 | 3029 ft | 144 kts | 102° |
| 2026-05-06 01:30 | 18.01934 | -63.31638 | 3028 ft | 150 kts | 102° |
| 2026-05-06 01:30 | 18.01733 | -63.30568 | 3031 ft | 152 kts | 102° |
| 2026-05-06 01:31 | 18.01530 | -63.29466 | 3033 ft | 155 kts | 100° |
| 2026-05-06 01:31 | 18.01568 | -63.28329 | 2948 ft | 150 kts | 83° |
| 2026-05-06 01:31 | 18.01729 | -63.27355 | 2791 ft | 123 kts | 85° |
| 2026-05-06 01:31 | 18.01847 | -63.26538 | 2633 ft | 108 kts | 84° |
| 2026-05-06 01:32 | 18.01962 | -63.25786 | 2509 ft | 98 kts | 83° |
| 2026-05-06 01:32 | 18.02071 | -63.25101 | 2382 ft | 94 kts | 85° |
| 2026-05-06 01:32 | 18.02184 | -63.24421 | 2258 ft | 94 kts | 81° |
| 2026-05-06 01:32 | 18.02294 | -63.23748 | 2161 ft | 87 kts | 85° |
| 2026-05-06 01:33 | 18.02361 | -63.23160 | 2052 ft | 80 kts | 86° |
| 2026-05-06 01:33 | 18.02427 | -63.22551 | 1979 ft | 87 kts | 82° |
| 2026-05-06 01:33 | 18.02520 | -63.21888 | 1923 ft | 92 kts | 82° |
| 2026-05-06 01:33 | 18.02621 | -63.21233 | 1916 ft | 93 kts | 82° |
| 2026-05-06 01:34 | 18.02714 | -63.20578 | 1901 ft | 88 kts | 83° |
| 2026-05-06 01:34 | 18.02799 | -63.19917 | 1815 ft | 93 kts | 83° |
| 2026-05-06 01:34 | 18.02898 | -63.19233 | 1741 ft | 96 kts | 84° |
| 2026-05-06 01:34 | 18.02999 | -63.18556 | 1656 ft | 93 kts | 81° |
| 2026-05-06 01:35 | 18.03069 | -63.17887 | 1543 ft | 92 kts | 83° |
| 2026-05-06 01:35 | 18.03137 | -63.17233 | 1350 ft | 88 kts | 82° |
| 2026-05-06 01:35 | 18.03230 | -63.16599 | 1213 ft | 88 kts | 81° |
| 2026-05-06 01:35 | 18.03355 | -63.15969 | 1051 ft | 89 kts | 80° |
| 2026-05-06 01:36 | 18.03450 | -63.15337 | 902 ft | 88 kts | 85° |
| 2026-05-06 01:36 | 18.03541 | -63.14716 | 775 ft | 85 kts | 82° |
| 2026-05-06 01:36 | 18.03631 | -63.14095 | 528 ft | 85 kts | 85° |
| 2026-05-06 01:36 | 18.03708 | -63.13475 | 399 ft | 88 kts | 85° |
| 2026-05-06 01:37 | 18.03810 | -63.12803 | 324 ft | 96 kts | 85° |
| 2026-05-06 01:37 | 18.03920 | -63.12142 | 137 ft | 90 kts | 85° |
| 2026-05-06 01:37 | 18.03998 | -63.11535 | 21 ft | 72 kts | 81° |
| 2026-05-06 01:37 | 18.04062 | -63.11102 | 22 ft | 39 kts | 81° |
| 2026-05-06 01:38 | 18.04083 | -63.10908 | 21 ft | 13 kts | 87° |
| 2026-05-06 01:38 | 18.04098 | -63.10897 | 21 ft | 5 kts | 292° |
| 2026-05-06 01:38 | 18.04106 | -63.10981 | 22 ft | 14 kts | 310° |
| 2026-05-06 01:38 | 18.04169 | -63.11025 | 23 ft | 7 kts | 267° |
| 2026-05-06 01:39 | 18.04166 | -63.11097 | 22 ft | 8 kts | 324° |
| 2026-05-06 01:39 | 18.04202 | -63.11106 | 22 ft | 3 kts | 356° |
| 2026-05-06 01:39 | 18.04232 | -63.11116 | 22 ft | 7 kts | 298° |
| 2026-05-06 01:39 | 18.04232 | -63.11158 | 22 ft | 2 kts | 321° |
| 2026-05-06 01:40 | 18.04262 | -63.11165 | 22 ft | 4 kts | 336° |
| 2026-05-06 01:40 | 18.04267 | -63.11161 | 22 ft | 1 kts | 143° |
| 2026-05-06 01:40 | 18.04254 | -63.11158 | 23 ft | 0 kts | 169° |